sensor_id;sensor_type;location;lat;lon;timestamp;pressure;altitude;pressure_sealevel;temperature;humidity
79037;BME280;68434;59.896;30.474;2023-06-22T00:02:25;101395.81;;;24.43;39.83
79037;BME280;68434;59.896;30.474;2023-06-22T00:04:52;101389.69;;;24.41;39.95
79037;BME280;68434;59.896;30.474;2023-06-22T00:07:22;101397.59;;;24.37;40.08
79037;BME280;68434;59.896;30.474;2023-06-22T00:09:49;101394.81;;;24.37;40.05
79037;BME280;68434;59.896;30.474;2023-06-22T00:12:18;101384.44;;;24.33;39.59
79037;BME280;68434;59.896;30.474;2023-06-22T00:14:45;101387.44;;;24.31;40.08
79037;BME280;68434;59.896;30.474;2023-06-22T00:17:13;101384.03;;;24.29;39.83
79037;BME280;68434;59.896;30.474;2023-06-22T00:19:40;101371.53;;;24.27;39.97
79037;BME280;68434;59.896;30.474;2023-06-22T00:22:09;101373.44;;;24.26;40.19
79037;BME280;68434;59.896;30.474;2023-06-22T00:24:38;101368.38;;;24.23;39.82
79037;BME280;68434;59.896;30.474;2023-06-22T00:27:05;101368.59;;;24.22;39.87
79037;BME280;68434;59.896;30.474;2023-06-22T00:29:33;101368.00;;;24.20;39.83
79037;BME280;68434;59.896;30.474;2023-06-22T00:32:03;101361.59;;;24.19;39.84
79037;BME280;68434;59.896;30.474;2023-06-22T00:34:30;101359.31;;;24.16;40.34
79037;BME280;68434;59.896;30.474;2023-06-22T00:37:00;101355.69;;;24.16;40.33
79037;BME280;68434;59.896;30.474;2023-06-22T00:39:30;101356.13;;;24.13;39.86
79037;BME280;68434;59.896;30.474;2023-06-22T00:42:00;101352.78;;;24.11;40.38
79037;BME280;68434;59.896;30.474;2023-06-22T00:44:30;101347.25;;;24.11;40.15
79037;BME280;68434;59.896;30.474;2023-06-22T00:46:58;101353.81;;;24.10;40.36
79037;BME280;68434;59.896;30.474;2023-06-22T00:49:26;101351.53;;;24.07;40.10
79037;BME280;68434;59.896;30.474;2023-06-22T00:51:54;101348.53;;;24.08;40.53
79037;BME280;68434;59.896;30.474;2023-06-22T00:54:22;101344.31;;;24.06;40.30
79037;BME280;68434;59.896;30.474;2023-06-22T00:56:50;101343.34;;;24.18;40.29
79037;BME280;68434;59.896;30.474;2023-06-22T00:59:23;101342.78;;;24.10;40.20
79037;BME280;68434;59.896;30.474;2023-06-22T01:01:52;101341.53;;;24.06;40.38
79037;BME280;68434;59.896;30.474;2023-06-22T01:04:19;101337.34;;;24.03;40.41
79037;BME280;68434;59.896;30.474;2023-06-22T01:06:52;101336.06;;;23.99;40.76
79037;BME280;68434;59.896;30.474;2023-06-22T01:09:28;101336.31;;;23.97;40.65
79037;BME280;68434;59.896;30.474;2023-06-22T01:12:01;101332.72;;;23.97;40.68
79037;BME280;68434;59.896;30.474;2023-06-22T01:14:39;101318.69;;;23.92;40.63
79037;BME280;68434;59.896;30.474;2023-06-22T01:17:12;101325.06;;;23.92;40.58
79037;BME280;68434;59.896;30.474;2023-06-22T01:19:45;101320.59;;;23.91;40.88
79037;BME280;68434;59.896;30.474;2023-06-22T01:22:16;101326.56;;;23.88;40.80
79037;BME280;68434;59.896;30.474;2023-06-22T01:24:51;101317.47;;;23.88;40.82
79037;BME280;68434;59.896;30.474;2023-06-22T01:27:32;101316.84;;;23.86;41.10
79037;BME280;68434;59.896;30.474;2023-06-22T01:30:05;101317.91;;;23.85;41.41
79037;BME280;68434;59.896;30.474;2023-06-22T01:32:36;101313.44;;;23.84;40.97
79037;BME280;68434;59.896;30.474;2023-06-22T01:35:07;101321.72;;;23.84;41.12
79037;BME280;68434;59.896;30.474;2023-06-22T01:37:37;101318.97;;;23.84;41.28
79037;BME280;68434;59.896;30.474;2023-06-22T01:40:06;101324.72;;;23.82;41.40
79037;BME280;68434;59.896;30.474;2023-06-22T01:42:35;101319.19;;;23.82;41.10
79037;BME280;68434;59.896;30.474;2023-06-22T01:45:07;101323.91;;;23.82;41.61
79037;BME280;68434;59.896;30.474;2023-06-22T01:47:38;101318.38;;;23.82;41.53
79037;BME280;68434;59.896;30.474;2023-06-22T01:50:07;101316.44;;;23.82;41.24
79037;BME280;68434;59.896;30.474;2023-06-22T01:52:34;101308.38;;;23.81;41.35
79037;BME280;68434;59.896;30.474;2023-06-22T01:55:04;101316.66;;;23.81;41.33
79037;BME280;68434;59.896;30.474;2023-06-22T01:57:34;101305.59;;;23.81;41.57
79037;BME280;68434;59.896;30.474;2023-06-22T02:00:06;101308.00;;;23.77;41.65
79037;BME280;68434;59.896;30.474;2023-06-22T02:02:46;101303.53;;;23.76;41.94
79037;BME280;68434;59.896;30.474;2023-06-22T02:05:17;101298.22;;;23.75;42.03
79037;BME280;68434;59.896;30.474;2023-06-22T02:07:52;101295.47;;;23.75;41.90
79037;BME280;68434;59.896;30.474;2023-06-22T02:10:26;101296.31;;;23.75;41.72
79037;BME280;68434;59.896;30.474;2023-06-22T02:12:58;101304.84;;;23.74;42.26
79037;BME280;68434;59.896;30.474;2023-06-22T02:15:28;101300.63;;;23.71;42.18
79037;BME280;68434;59.896;30.474;2023-06-22T02:17:56;101296.78;;;23.72;42.01
79037;BME280;68434;59.896;30.474;2023-06-22T02:20:44;101300.41;;;23.73;42.43
79037;BME280;68434;59.896;30.474;2023-06-22T02:23:11;101299.75;;;23.71;42.19
79037;BME280;68434;59.896;30.474;2023-06-22T02:25:39;101293.59;;;23.69;42.35
79037;BME280;68434;59.896;30.474;2023-06-22T02:28:11;101301.31;;;23.67;42.44
79037;BME280;68434;59.896;30.474;2023-06-22T02:30:40;101307.88;;;23.66;42.70
79037;BME280;68434;59.896;30.474;2023-06-22T02:33:08;101298.75;;;23.65;42.78
79037;BME280;68434;59.896;30.474;2023-06-22T02:35:36;101295.16;;;23.65;42.73
79037;BME280;68434;59.896;30.474;2023-06-22T02:38:04;101292.38;;;23.65;43.04
79037;BME280;68434;59.896;30.474;2023-06-22T02:40:32;101292.63;;;23.63;43.04
79037;BME280;68434;59.896;30.474;2023-06-22T02:43:00;101300.44;;;23.66;42.85
79037;BME280;68434;59.896;30.474;2023-06-22T02:45:31;101286.41;;;23.68;42.85
79037;BME280;68434;59.896;30.474;2023-06-22T02:48:00;101277.25;;;23.67;42.78
79037;BME280;68434;59.896;30.474;2023-06-22T02:50:28;101285.09;;;23.70;42.91
79037;BME280;68434;59.896;30.474;2023-06-22T02:52:56;101294.47;;;23.69;42.60
79037;BME280;68434;59.896;30.474;2023-06-22T02:55:25;101277.88;;;23.69;42.66
79037;BME280;68434;59.896;30.474;2023-06-22T02:57:56;101272.59;;;23.68;42.81
79037;BME280;68434;59.896;30.474;2023-06-22T03:00:27;101274.28;;;23.69;43.24
79037;BME280;68434;59.896;30.474;2023-06-22T03:02:57;101274.28;;;23.69;43.14
79037;BME280;68434;59.896;30.474;2023-06-22T03:05:26;101273.53;;;23.80;43.06
79037;BME280;68434;59.896;30.474;2023-06-22T03:07:55;101278.28;;;23.73;42.76
79037;BME280;68434;59.896;30.474;2023-06-22T03:10:23;101272.13;;;23.71;43.23
79037;BME280;68434;59.896;30.474;2023-06-22T03:12:50;101274.28;;;23.69;43.24
79037;BME280;68434;59.896;30.474;2023-06-22T03:15:18;101277.66;;;23.71;43.26
79037;BME280;68434;59.896;30.474;2023-06-22T03:17:45;101269.59;;;23.69;42.98
79037;BME280;68434;59.896;30.474;2023-06-22T03:20:13;101277.66;;;23.71;42.99
79037;BME280;68434;59.896;30.474;2023-06-22T03:22:42;101292.34;;;23.71;43.10
79037;BME280;68434;59.896;30.474;2023-06-22T03:25:11;101295.09;;;23.71;43.00
79037;BME280;68434;59.896;30.474;2023-06-22T03:27:43;101302.06;;;23.74;43.26
79037;BME280;68434;59.896;30.474;2023-06-22T03:30:12;101306.53;;;23.75;42.81
79037;BME280;68434;59.896;30.474;2023-06-22T03:32:39;101314.34;;;23.78;43.19
79037;BME280;68434;59.896;30.474;2023-06-22T03:35:09;101295.88;;;23.78;42.89
79037;BME280;68434;59.896;30.474;2023-06-22T03:37:41;101292.66;;;23.81;42.91
79037;BME280;68434;59.896;30.474;2023-06-22T03:40:10;101281.38;;;23.83;42.96
79037;BME280;68434;59.896;30.474;2023-06-22T03:42:37;101285.56;;;23.85;43.26
79037;BME280;68434;59.896;30.474;2023-06-22T03:45:08;101282.81;;;23.85;43.22
79037;BME280;68434;59.896;30.474;2023-06-22T03:47:36;101293.63;;;23.87;43.06
79037;BME280;68434;59.896;30.474;2023-06-22T03:50:05;101293.63;;;23.87;43.15
79037;BME280;68434;59.896;30.474;2023-06-22T03:52:34;101291.72;;;23.87;43.54
79037;BME280;68434;59.896;30.474;2023-06-22T03:55:05;101291.72;;;23.87;43.49
79037;BME280;68434;59.896;30.474;2023-06-22T03:57:33;101282.34;;;23.88;43.20
79037;BME280;68434;59.896;30.474;2023-06-22T04:00:01;101274.91;;;23.89;43.05
79037;BME280;68434;59.896;30.474;2023-06-22T04:02:39;101282.75;;;23.92;43.50
79037;BME280;68434;59.896;30.474;2023-06-22T04:05:08;101279.13;;;23.91;43.46
79037;BME280;68434;59.896;30.474;2023-06-22T04:07:36;101275.09;;;23.94;43.87
79037;BME280;68434;59.896;30.474;2023-06-22T04:10:06;101277.00;;;23.93;44.01
79037;BME280;68434;59.896;30.474;2023-06-22T04:12:34;101277.44;;;23.97;43.88
79037;BME280;68434;59.896;30.474;2023-06-22T04:15:02;101274.66;;;23.97;43.95
79037;BME280;68434;59.896;30.474;2023-06-22T04:17:32;101274.22;;;24.00;44.04
79037;BME280;68434;59.896;30.474;2023-06-22T04:20:00;101271.66;;;23.98;43.78
79037;BME280;68434;59.896;30.474;2023-06-22T04:22:31;101274.22;;;24.00;44.01
79037;BME280;68434;59.896;30.474;2023-06-22T04:24:59;101269.25;;;24.02;44.13
79037;BME280;68434;59.896;30.474;2023-06-22T04:27:28;101257.38;;;24.02;44.21
79037;BME280;68434;59.896;30.474;2023-06-22T04:29:56;101264.59;;;24.02;43.96
79037;BME280;68434;59.896;30.474;2023-06-22T04:32:26;101259.22;;;24.08;43.63
79037;BME280;68434;59.896;30.474;2023-06-22T04:34:54;101261.38;;;24.06;43.65
79037;BME280;68434;59.896;30.474;2023-06-22T04:37:21;101269.03;;;24.22;43.83
79037;BME280;68434;59.896;30.474;2023-06-22T04:39:49;101266.97;;;24.17;44.09
79037;BME280;68434;59.896;30.474;2023-06-22T04:42:17;101266.59;;;24.14;44.26
79037;BME280;68434;59.896;30.474;2023-06-22T04:44:46;101268.28;;;24.15;44.17
79037;BME280;68434;59.896;30.474;2023-06-22T04:47:13;101258.91;;;24.16;44.23
79037;BME280;68434;59.896;30.474;2023-06-22T04:49:41;101265.91;;;24.18;44.57
79037;BME280;68434;59.896;30.474;2023-06-22T04:52:10;101262.28;;;24.18;44.60
79037;BME280;68434;59.896;30.474;2023-06-22T04:54:40;101261.81;;;24.21;44.54
79037;BME280;68434;59.896;30.474;2023-06-22T04:57:14;101258.59;;;24.24;44.09
79037;BME280;68434;59.896;30.474;2023-06-22T04:59:42;101256.44;;;24.26;44.65
79037;BME280;68434;59.896;30.474;2023-06-22T05:02:11;101254.50;;;24.26;44.75
79037;BME280;68434;59.896;30.474;2023-06-22T05:04:39;101250.22;;;24.30;44.57
79037;BME280;68434;59.896;30.474;2023-06-22T05:07:07;101243.59;;;24.31;44.50
79037;BME280;68434;59.896;30.474;2023-06-22T05:09:36;101244.81;;;24.35;44.12
79037;BME280;68434;59.896;30.474;2023-06-22T05:12:04;101239.91;;;24.37;44.80
79037;BME280;68434;59.896;30.474;2023-06-22T05:14:32;101243.31;;;24.39;44.52
79037;BME280;68434;59.896;30.474;2023-06-22T05:17:00;101242.22;;;24.40;44.19
79037;BME280;68434;59.896;30.474;2023-06-22T05:19:31;101236.22;;;24.43;44.40
79037;BME280;68434;59.896;30.474;2023-06-22T05:21:59;101233.22;;;24.45;44.05
79037;BME280;68434;59.896;30.474;2023-06-22T05:24:27;101224.69;;;24.46;43.83
79037;BME280;68434;59.896;30.474;2023-06-22T05:26:55;101226.34;;;24.47;44.06
79037;BME280;68434;59.896;30.474;2023-06-22T05:29:22;101218.91;;;24.48;43.95
79037;BME280;68434;59.896;30.474;2023-06-22T05:31:50;101223.97;;;24.51;43.73
79037;BME280;68434;59.896;30.474;2023-06-22T05:34:17;101218.22;;;24.52;43.66
79037;BME280;68434;59.896;30.474;2023-06-22T05:36:47;101214.59;;;24.52;44.09
79037;BME280;68434;59.896;30.474;2023-06-22T05:39:15;101208.59;;;24.55;43.83
79037;BME280;68434;59.896;30.474;2023-06-22T05:41:44;101208.34;;;24.56;43.91
79037;BME280;68434;59.896;30.474;2023-06-22T05:44:12;101204.28;;;24.59;43.99
79037;BME280;68434;59.896;30.474;2023-06-22T05:46:41;101202.09;;;24.61;44.17
79037;BME280;68434;59.896;30.474;2023-06-22T05:49:11;101208.91;;;24.65;43.74
79037;BME280;68434;59.896;30.474;2023-06-22T05:51:39;101196.97;;;24.64;43.82
79037;BME280;68434;59.896;30.474;2023-06-22T05:54:08;101201.81;;;24.69;43.57
79037;BME280;68434;59.896;30.474;2023-06-22T05:56:36;101187.50;;;24.72;43.44
79037;BME280;68434;59.896;30.474;2023-06-22T05:59:04;101181.59;;;24.68;43.59
79037;BME280;68434;59.896;30.474;2023-06-22T06:01:32;101191.25;;;24.77;43.90
79037;BME280;68434;59.896;30.474;2023-06-22T06:04:02;101179.13;;;24.78;43.37
79037;BME280;68434;59.896;30.474;2023-06-22T06:06:30;101172.25;;;24.81;43.34
79037;BME280;68434;59.896;30.474;2023-06-22T06:08:57;101178.16;;;24.84;43.39
79037;BME280;68434;59.896;30.474;2023-06-22T06:11:27;101168.53;;;24.87;43.76
79037;BME280;68434;59.896;30.474;2023-06-22T06:13:55;101174.44;;;24.90;43.31
79037;BME280;68434;59.896;30.474;2023-06-22T06:16:23;101160.13;;;24.93;43.22
79037;BME280;68434;59.896;30.474;2023-06-22T06:18:50;101159.88;;;24.95;43.07
79037;BME280;68434;59.896;30.474;2023-06-22T06:24:42;101163.13;;;25.15;43.03
79037;BME280;68434;59.896;30.474;2023-06-22T06:27:11;101152.91;;;25.27;42.62
79037;BME280;68434;59.896;30.474;2023-06-22T06:29:39;101145.38;;;25.34;42.61
79037;BME280;68434;59.896;30.474;2023-06-22T06:32:08;101147.50;;;25.43;42.46
79037;BME280;68434;59.896;30.474;2023-06-22T06:34:36;101145.56;;;25.55;42.00
79037;BME280;68434;59.896;30.474;2023-06-22T06:37:04;101136.88;;;25.63;42.12
79037;BME280;68434;59.896;30.474;2023-06-22T06:39:31;101138.31;;;25.66;41.70
79037;BME280;68434;59.896;30.474;2023-06-22T06:41:59;101140.50;;;25.64;41.84
79037;BME280;68434;59.896;30.474;2023-06-22T06:44:28;101141.34;;;25.64;41.95
79037;BME280;68434;59.896;30.474;2023-06-22T06:46:56;101130.72;;;25.61;41.70
79037;BME280;68434;59.896;30.474;2023-06-22T06:49:24;101126.28;;;25.60;41.92
79037;BME280;68434;59.896;30.474;2023-06-22T06:55:16;101123.63;;;25.65;41.97
79037;BME280;68434;59.896;30.474;2023-06-22T06:57:45;101128.94;;;25.67;41.82
79037;BME280;68434;59.896;30.474;2023-06-22T07:03:03;101129.13;;;25.77;41.69
79037;BME280;68434;59.896;30.474;2023-06-22T07:05:30;101118.28;;;25.75;41.50
79037;BME280;68434;59.896;30.474;2023-06-22T07:10:44;101121.41;;;25.79;41.73
79037;BME280;68434;59.896;30.474;2023-06-22T07:13:11;101121.16;;;25.80;41.36
79037;BME280;68434;59.896;30.474;2023-06-22T07:15:41;101117.19;;;25.76;41.66
79037;BME280;68434;59.896;30.474;2023-06-22T07:18:08;101116.94;;;25.78;41.47
79037;BME280;68434;59.896;30.474;2023-06-22T07:23:22;101124.78;;;25.81;41.67
79037;BME280;68434;59.896;30.474;2023-06-22T07:25:49;101108.16;;;25.81;41.24
79037;BME280;68434;59.896;30.474;2023-06-22T07:28:17;101108.75;;;25.83;41.42
79037;BME280;68434;59.896;30.474;2023-06-22T07:30:47;101098.47;;;25.83;41.52
79037;BME280;68434;59.896;30.474;2023-06-22T07:33:14;101097.16;;;25.86;41.63
79037;BME280;68434;59.896;30.474;2023-06-22T07:35:43;101094.41;;;25.86;41.42
79037;BME280;68434;59.896;30.474;2023-06-22T07:38:11;101096.25;;;25.97;41.10
79037;BME280;68434;59.896;30.474;2023-06-22T07:40:38;101094.47;;;25.91;41.47
79037;BME280;68434;59.896;30.474;2023-06-22T07:43:07;101092.56;;;25.92;41.18
79037;BME280;68434;59.896;30.474;2023-06-22T07:45:55;101087.00;;;25.92;41.21
79037;BME280;68434;59.896;30.474;2023-06-22T07:48:40;101084.84;;;25.94;41.19
79037;BME280;68434;59.896;30.474;2023-06-22T07:51:08;101079.31;;;25.94;41.16
79037;BME280;68434;59.896;30.474;2023-06-22T07:53:37;101082.66;;;25.96;41.09
79037;BME280;68434;59.896;30.474;2023-06-22T07:56:04;101075.19;;;25.96;41.27
79037;BME280;68434;59.896;30.474;2023-06-22T07:58:33;101077.72;;;25.98;41.00
79037;BME280;68434;59.896;30.474;2023-06-22T08:01:02;101073.63;;;26.00;41.07
79037;BME280;68434;59.896;30.474;2023-06-22T08:03:30;101076.13;;;26.02;41.09
79037;BME280;68434;59.896;30.474;2023-06-22T08:05:57;101081.69;;;26.02;40.94
79037;BME280;68434;59.896;30.474;2023-06-22T08:08:25;101073.13;;;26.03;40.96
79037;BME280;68434;59.896;30.474;2023-06-22T08:10:53;101064.56;;;26.05;40.91
79037;BME280;68434;59.896;30.474;2023-06-22T08:13:20;101070.69;;;26.07;40.96
79037;BME280;68434;59.896;30.474;2023-06-22T08:16:08;101061.88;;;26.10;40.90
79037;BME280;68434;59.896;30.474;2023-06-22T08:21:57;101059.47;;;26.13;41.00
79037;BME280;68434;59.896;30.474;2023-06-22T08:24:25;101057.50;;;26.14;41.48
79037;BME280;68434;59.896;30.474;2023-06-22T08:26:57;101054.50;;;26.15;42.08
79037;BME280;68434;59.896;30.474;2023-06-22T08:29:41;101042.66;;;26.20;42.55
79037;BME280;68434;59.896;30.474;2023-06-22T08:32:11;101042.16;;;26.23;42.81
79037;BME280;68434;59.896;30.474;2023-06-22T08:34:57;101048.91;;;26.27;43.22
79037;BME280;68434;59.896;30.474;2023-06-22T08:37:44;101041.41;;;26.27;43.01
79037;BME280;68434;59.896;30.474;2023-06-22T08:40:19;101044.03;;;26.34;42.87
79037;BME280;68434;59.896;30.474;2023-06-22T08:42:47;101041.50;;;26.32;43.07
79037;BME280;68434;59.896;30.474;2023-06-22T08:45:34;101035.78;;;26.39;42.87
79037;BME280;68434;59.896;30.474;2023-06-22T08:48:04;101044.94;;;26.39;42.82
79037;BME280;68434;59.896;30.474;2023-06-22T08:53:22;101039.38;;;26.39;42.72
79037;BME280;68434;59.896;30.474;2023-06-22T08:55:50;101032.06;;;26.33;42.45
79037;BME280;68434;59.896;30.474;2023-06-22T08:58:18;101028.88;;;26.41;42.36
79037;BME280;68434;59.896;30.474;2023-06-22T09:00:47;101033.09;;;26.44;42.28
79037;BME280;68434;59.896;30.474;2023-06-22T09:03:34;101027.03;;;26.47;41.99
79037;BME280;68434;59.896;30.474;2023-06-22T09:06:22;101022.94;;;26.49;41.62
79037;BME280;68434;59.896;30.474;2023-06-22T09:08:50;101017.13;;;26.51;41.55
79037;BME280;68434;59.896;30.474;2023-06-22T09:11:17;101023.69;;;26.61;41.51
79037;BME280;68434;59.896;30.474;2023-06-22T09:14:03;101024.19;;;26.58;41.51
79037;BME280;68434;59.896;30.474;2023-06-22T09:16:31;101018.03;;;26.56;41.38
79037;BME280;68434;59.896;30.474;2023-06-22T09:19:00;101010.75;;;26.67;41.52
79037;BME280;68434;59.896;30.474;2023-06-22T09:21:28;101021.72;;;26.62;41.50
79037;BME280;68434;59.896;30.474;2023-06-22T09:23:56;101016.44;;;26.60;41.46
79037;BME280;68434;59.896;30.474;2023-06-22T09:29:30;101012.59;;;26.61;41.28
79037;BME280;68434;59.896;30.474;2023-06-22T09:31:59;101011.25;;;26.64;41.26
79037;BME280;68434;59.896;30.474;2023-06-22T09:34:48;101001.00;;;26.64;41.68
79037;BME280;68434;59.896;30.474;2023-06-22T09:37:16;100999.03;;;26.65;41.51
79037;BME280;68434;59.896;30.474;2023-06-22T09:39:44;100997.97;;;26.66;41.81
79037;BME280;68434;59.896;30.474;2023-06-22T09:42:12;101004.09;;;26.68;41.45
79037;BME280;68434;59.896;30.474;2023-06-22T09:44:40;100998.03;;;26.71;41.43
79037;BME280;68434;59.896;30.474;2023-06-22T09:47:08;100992.22;;;26.72;41.26
79037;BME280;68434;59.896;30.474;2023-06-22T09:49:36;100990.03;;;26.74;41.17
79037;BME280;68434;59.896;30.474;2023-06-22T09:52:22;100981.72;;;26.74;41.31
79037;BME280;68434;59.896;30.474;2023-06-22T09:54:50;100981.47;;;26.76;40.71
79037;BME280;68434;59.896;30.474;2023-06-22T09:57:35;100970.94;;;26.78;40.85
79037;BME280;68434;59.896;30.474;2023-06-22T10:00:04;100962.09;;;26.81;40.93
79037;BME280;68434;59.896;30.474;2023-06-22T10:02:34;100965.69;;;26.81;40.95
79037;BME280;68434;59.896;30.474;2023-06-22T10:05:02;100957.97;;;26.83;40.72
79037;BME280;68434;59.896;30.474;2023-06-22T10:10:36;100958.88;;;26.89;40.84
79037;BME280;68434;59.896;30.474;2023-06-22T10:13:08;100946.94;;;26.88;41.02
79037;BME280;68434;59.896;30.474;2023-06-22T10:15:36;100945.84;;;26.89;40.98
79037;BME280;68434;59.896;30.474;2023-06-22T10:18:21;100946.69;;;26.90;40.88
79037;BME280;68434;59.896;30.474;2023-06-22T10:20:52;100942.53;;;26.92;41.20
79037;BME280;68434;59.896;30.474;2023-06-22T10:23:22;100928.66;;;26.92;40.84
79037;BME280;68434;59.896;30.474;2023-06-22T10:28:36;100919.28;;;26.98;41.01
79037;BME280;68434;59.896;30.474;2023-06-22T10:31:03;100911.81;;;26.99;40.86
79037;BME280;68434;59.896;30.474;2023-06-22T10:33:31;100899.84;;;26.98;41.53
79037;BME280;68434;59.896;30.474;2023-06-22T10:35:58;100897.34;;;26.97;41.40
79037;BME280;68434;59.896;30.474;2023-06-22T10:38:27;100895.94;;;26.94;41.62
79037;BME280;68434;59.896;30.474;2023-06-22T10:40:55;100894.22;;;26.93;41.95
79037;BME280;68434;59.896;30.474;2023-06-22T10:43:22;100895.72;;;27.01;41.78
79037;BME280;68434;59.896;30.474;2023-06-22T10:45:50;100897.84;;;26.94;42.25
79037;BME280;68434;59.896;30.474;2023-06-22T10:48:18;100893.66;;;26.91;42.16
79037;BME280;68434;59.896;30.474;2023-06-22T10:53:33;100883.34;;;26.87;42.94
79037;BME280;68434;59.896;30.474;2023-06-22T10:56:01;100883.59;;;26.85;42.66
79037;BME280;68434;59.896;30.474;2023-06-22T11:01:15;100896.03;;;26.83;42.72
79037;BME280;68434;59.896;30.474;2023-06-22T11:06:47;100913.19;;;26.80;42.96
79037;BME280;68434;59.896;30.474;2023-06-22T11:09:17;100903.22;;;26.79;42.89
79037;BME280;68434;59.896;30.474;2023-06-22T11:12:02;100904.31;;;26.78;43.23
79037;BME280;68434;59.896;30.474;2023-06-22T11:14:30;100893.72;;;26.75;43.19
79037;BME280;68434;59.896;30.474;2023-06-22T11:16:57;100898.69;;;26.73;43.38
79037;BME280;68434;59.896;30.474;2023-06-22T11:19:44;100903.38;;;26.72;43.69
79037;BME280;68434;59.896;30.474;2023-06-22T11:22:13;100906.41;;;26.71;43.38
79037;BME280;68434;59.896;30.474;2023-06-22T11:24:42;100893.63;;;26.70;43.44
79037;BME280;68434;59.896;30.474;2023-06-22T11:27:09;100891.13;;;26.68;43.42
79037;BME280;68434;59.896;30.474;2023-06-22T11:29:54;100883.91;;;26.67;43.36
79037;BME280;68434;59.896;30.474;2023-06-22T11:32:22;100873.31;;;26.64;43.36
79037;BME280;68434;59.896;30.474;2023-06-22T11:34:50;100872.72;;;26.62;43.55
79037;BME280;68434;59.896;30.474;2023-06-22T11:37:17;100874.38;;;26.63;43.49
79037;BME280;68434;59.896;30.474;2023-06-22T11:39:47;100872.94;;;26.61;43.62
79037;BME280;68434;59.896;30.474;2023-06-22T11:42:14;100871.28;;;26.60;43.38
79037;BME280;68434;59.896;30.474;2023-06-22T11:45:00;100874.06;;;26.60;43.54
79037;BME280;68434;59.896;30.474;2023-06-22T11:47:31;100870.69;;;26.58;43.54
79037;BME280;68434;59.896;30.474;2023-06-22T11:49:59;100870.94;;;26.56;43.63
79037;BME280;68434;59.896;30.474;2023-06-22T11:52:43;100873.97;;;26.55;43.75
79037;BME280;68434;59.896;30.474;2023-06-22T11:55:13;100867.81;;;26.53;43.71
79037;BME280;68434;59.896;30.474;2023-06-22T12:01:02;100865.31;;;26.51;43.54
79037;BME280;68434;59.896;30.474;2023-06-22T12:03:31;100866.41;;;26.50;43.84
79037;BME280;68434;59.896;30.474;2023-06-22T12:05:59;100855.56;;;26.49;43.94
79037;BME280;68434;59.896;30.474;2023-06-22T12:08:27;100850.88;;;26.49;43.81
79037;BME280;68434;59.896;30.474;2023-06-22T12:10:56;100854.72;;;26.48;43.79
79037;BME280;68434;59.896;30.474;2023-06-22T12:13:24;100850.00;;;26.49;43.90
79037;BME280;68434;59.896;30.474;2023-06-22T12:15:51;100837.75;;;26.45;43.98
79037;BME280;68434;59.896;30.474;2023-06-22T12:21:05;100841.34;;;26.45;43.77
79037;BME280;68434;59.896;30.474;2023-06-22T12:23:33;100838.84;;;26.44;43.93
79037;BME280;68434;59.896;30.474;2023-06-22T12:26:02;100839.69;;;26.44;43.84
79037;BME280;68434;59.896;30.474;2023-06-22T12:28:30;100836.06;;;26.44;43.91
79037;BME280;68434;59.896;30.474;2023-06-22T12:30:58;100833.28;;;26.44;43.80
79037;BME280;68434;59.896;30.474;2023-06-22T12:33:25;100827.72;;;26.44;43.93
79037;BME280;68434;59.896;30.474;2023-06-22T12:35:53;100825.22;;;26.42;43.95
79037;BME280;68434;59.896;30.474;2023-06-22T12:38:22;100825.22;;;26.42;43.59
79037;BME280;68434;59.896;30.474;2023-06-22T12:41:29;100829.69;;;26.43;44.03
79037;BME280;68434;59.896;30.474;2023-06-22T12:43:57;100826.59;;;26.40;44.23
79037;BME280;68434;59.896;30.474;2023-06-22T12:46:25;100847.94;;;26.39;43.82
79037;BME280;68434;59.896;30.474;2023-06-22T12:49:09;100838.78;;;26.39;43.81
79037;BME280;68434;59.896;30.474;2023-06-22T12:51:55;100846.25;;;26.38;43.94
79037;BME280;68434;59.896;30.474;2023-06-22T12:57:10;100827.34;;;26.35;43.94
79037;BME280;68434;59.896;30.474;2023-06-22T12:59:38;100832.91;;;26.35;44.09
79037;BME280;68434;59.896;30.474;2023-06-22T13:04:52;100838.69;;;26.34;43.62
79037;BME280;68434;59.896;30.474;2023-06-22T13:07:20;100824.84;;;26.34;43.97
79037;BME280;68434;59.896;30.474;2023-06-22T13:09:48;100829.53;;;26.33;43.95
79037;BME280;68434;59.896;30.474;2023-06-22T13:12:19;100838.69;;;26.34;44.08
79037;BME280;68434;59.896;30.474;2023-06-22T13:15:05;100832.31;;;26.33;43.96
79037;BME280;68434;59.896;30.474;2023-06-22T13:17:51;100837.84;;;26.33;44.02
79037;BME280;68434;59.896;30.474;2023-06-22T13:20:19;100838.09;;;26.32;44.04
79037;BME280;68434;59.896;30.474;2023-06-22T13:22:46;100834.78;;;26.30;43.98
79037;BME280;68434;59.896;30.474;2023-06-22T13:25:14;100851.41;;;26.30;44.09
79037;BME280;68434;59.896;30.474;2023-06-22T13:27:47;100858.28;;;26.27;44.03
79037;BME280;68434;59.896;30.474;2023-06-22T13:30:14;100880.22;;;26.29;44.35
79037;BME280;68434;59.896;30.474;2023-06-22T13:32:44;100884.97;;;26.28;44.01
79037;BME280;68434;59.896;30.474;2023-06-22T13:35:29;100893.53;;;26.27;44.08
79037;BME280;68434;59.896;30.474;2023-06-22T13:37:57;100896.56;;;26.25;44.23
79037;BME280;68434;59.896;30.474;2023-06-22T13:40:43;100888.81;;;26.27;44.33
79037;BME280;68434;59.896;30.474;2023-06-22T13:43:12;100892.09;;;26.24;44.18
79037;BME280;68434;59.896;30.474;2023-06-22T13:45:40;100895.72;;;26.25;44.30
79037;BME280;68434;59.896;30.474;2023-06-22T13:48:08;100903.38;;;26.34;44.11